sensor_id;sensor_type;location;lat;lon;timestamp;P1;durP1;ratioP1;P2;durP2;ratioP2
49340;SDS011;35209;51.050;13.678;2023-04-15T00:02:20;3.65;;;2.53;;
49340;SDS011;35209;51.050;13.678;2023-04-15T00:07:22;2.22;;;2.03;;
49340;SDS011;35209;51.050;13.678;2023-04-15T00:12:24;2.03;;;1.80;;
49340;SDS011;35209;51.050;13.678;2023-04-15T00:17:26;1.50;;;1.40;;
49340;SDS011;35209;51.050;13.678;2023-04-15T00:22:28;1.52;;;1.42;;
49340;SDS011;35209;51.050;13.678;2023-04-15T00:27:29;1.60;;;1.50;;
49340;SDS011;35209;51.050;13.678;2023-04-15T00:32:31;1.80;;;1.70;;
49340;SDS011;35209;51.050;13.678;2023-04-15T00:37:33;1.35;;;1.25;;
49340;SDS011;35209;51.050;13.678;2023-04-15T00:42:35;1.92;;;1.17;;
49340;SDS011;35209;51.050;13.678;2023-04-15T00:47:38;1.80;;;1.50;;
49340;SDS011;35209;51.050;13.678;2023-04-15T00:52:42;1.50;;;1.40;;
49340;SDS011;35209;51.050;13.678;2023-04-15T00:57:43;2.08;;;1.15;;
49340;SDS011;35209;51.050;13.678;2023-04-15T01:02:45;1.13;;;1.02;;
49340;SDS011;35209;51.050;13.678;2023-04-15T01:07:48;3.00;;;1.40;;
49340;SDS011;35209;51.050;13.678;2023-04-15T01:12:49;1.60;;;1.38;;
49340;SDS011;35209;51.050;13.678;2023-04-15T01:17:51;1.63;;;1.48;;
49340;SDS011;35209;51.050;13.678;2023-04-15T01:22:53;1.48;;;1.38;;
49340;SDS011;35209;51.050;13.678;2023-04-15T01:27:55;3.00;;;1.92;;
49340;SDS011;35209;51.050;13.678;2023-04-15T01:32:57;2.10;;;1.90;;
49340;SDS011;35209;51.050;13.678;2023-04-15T01:38:02;2.72;;;1.98;;
49340;SDS011;35209;51.050;13.678;2023-04-15T01:43:07;2.55;;;2.35;;
49340;SDS011;35209;51.050;13.678;2023-04-15T01:48:09;2.15;;;1.80;;
49340;SDS011;35209;51.050;13.678;2023-04-15T01:53:11;1.73;;;1.63;;
49340;SDS011;35209;51.050;13.678;2023-04-15T01:58:14;2.22;;;2.13;;
49340;SDS011;35209;51.050;13.678;2023-04-15T02:03:17;2.55;;;2.35;;
49340;SDS011;35209;51.050;13.678;2023-04-15T02:08:19;2.42;;;2.30;;
49340;SDS011;35209;51.050;13.678;2023-04-15T02:13:21;2.38;;;2.28;;
49340;SDS011;35209;51.050;13.678;2023-04-15T02:18:23;2.50;;;2.30;;
49340;SDS011;35209;51.050;13.678;2023-04-15T02:23:25;2.55;;;2.30;;
49340;SDS011;35209;51.050;13.678;2023-04-15T02:28:26;2.55;;;2.35;;
49340;SDS011;35209;51.050;13.678;2023-04-15T02:33:28;2.78;;;2.00;;
49340;SDS011;35209;51.050;13.678;2023-04-15T02:38:30;2.17;;;1.98;;
49340;SDS011;35209;51.050;13.678;2023-04-15T02:43:32;2.92;;;1.95;;
49340;SDS011;35209;51.050;13.678;2023-04-15T02:48:34;3.88;;;2.13;;
49340;SDS011;35209;51.050;13.678;2023-04-15T02:53:37;2.08;;;1.98;;
49340;SDS011;35209;51.050;13.678;2023-04-15T02:58:39;2.25;;;1.73;;
49340;SDS011;35209;51.050;13.678;2023-04-15T03:03:41;2.40;;;2.30;;
49340;SDS011;35209;51.050;13.678;2023-04-15T03:08:43;1.75;;;1.65;;
49340;SDS011;35209;51.050;13.678;2023-04-15T03:13:46;1.95;;;1.60;;
49340;SDS011;35209;51.050;13.678;2023-04-15T03:18:58;1.80;;;1.70;;
49340;SDS011;35209;51.050;13.678;2023-04-15T03:24:02;1.80;;;1.70;;
49340;SDS011;35209;51.050;13.678;2023-04-15T03:29:04;2.70;;;2.10;;
49340;SDS011;35209;51.050;13.678;2023-04-15T03:34:07;2.72;;;2.50;;
49340;SDS011;35209;51.050;13.678;2023-04-15T03:39:09;2.33;;;1.92;;
49340;SDS011;35209;51.050;13.678;2023-04-15T03:44:11;3.78;;;2.63;;
49340;SDS011;35209;51.050;13.678;2023-04-15T03:49:13;2.97;;;2.33;;
49340;SDS011;35209;51.050;13.678;2023-04-15T03:54:14;2.58;;;2.38;;
49340;SDS011;35209;51.050;13.678;2023-04-15T03:59:17;2.33;;;2.13;;
49340;SDS011;35209;51.050;13.678;2023-04-15T04:04:19;2.92;;;2.63;;
49340;SDS011;35209;51.050;13.678;2023-04-15T04:09:21;3.42;;;3.10;;
49340;SDS011;35209;51.050;13.678;2023-04-15T04:14:23;3.40;;;3.20;;
49340;SDS011;35209;51.050;13.678;2023-04-15T04:19:29;3.30;;;3.10;;
49340;SDS011;35209;51.050;13.678;2023-04-15T04:24:31;3.75;;;3.30;;
49340;SDS011;35209;51.050;13.678;2023-04-15T04:29:33;4.30;;;3.35;;
49340;SDS011;35209;51.050;13.678;2023-04-15T04:34:34;3.50;;;3.20;;
49340;SDS011;35209;51.050;13.678;2023-04-15T04:39:36;3.78;;;3.47;;
49340;SDS011;35209;51.050;13.678;2023-04-15T04:44:38;3.97;;;3.67;;
49340;SDS011;35209;51.050;13.678;2023-04-15T04:49:40;5.00;;;4.53;;
49340;SDS011;35209;51.050;13.678;2023-04-15T04:59:53;4.85;;;4.43;;
49340;SDS011;35209;51.050;13.678;2023-04-15T05:04:55;4.57;;;4.25;;
49340;SDS011;35209;51.050;13.678;2023-04-15T05:09:57;5.32;;;4.93;;
49340;SDS011;35209;51.050;13.678;2023-04-15T05:14:58;5.13;;;4.72;;
49340;SDS011;35209;51.050;13.678;2023-04-15T05:20:00;3.45;;;3.25;;
49340;SDS011;35209;51.050;13.678;2023-04-15T05:25:02;3.72;;;3.53;;
49340;SDS011;35209;51.050;13.678;2023-04-15T05:30:04;3.33;;;3.05;;
49340;SDS011;35209;51.050;13.678;2023-04-15T05:35:07;3.25;;;3.05;;
49340;SDS011;35209;51.050;13.678;2023-04-15T05:40:09;2.60;;;2.40;;
49340;SDS011;35209;51.050;13.678;2023-04-15T05:45:11;3.08;;;2.80;;
49340;SDS011;35209;51.050;13.678;2023-04-15T05:50:13;2.30;;;2.10;;
49340;SDS011;35209;51.050;13.678;2023-04-15T05:55:16;1.70;;;1.60;;
49340;SDS011;35209;51.050;13.678;2023-04-15T06:00:17;1.42;;;1.30;;
49340;SDS011;35209;51.050;13.678;2023-04-15T06:05:20;1.20;;;1.10;;
49340;SDS011;35209;51.050;13.678;2023-04-15T06:10:22;0.80;;;0.80;;
49340;SDS011;35209;51.050;13.678;2023-04-15T06:15:23;0.80;;;0.80;;
49340;SDS011;35209;51.050;13.678;2023-04-15T06:20:25;0.82;;;0.80;;
49340;SDS011;35209;51.050;13.678;2023-04-15T06:25:27;1.13;;;0.68;;
49340;SDS011;35209;51.050;13.678;2023-04-15T06:30:28;0.65;;;0.50;;
49340;SDS011;35209;51.050;13.678;2023-04-15T06:35:30;0.40;;;0.40;;
49340;SDS011;35209;51.050;13.678;2023-04-15T06:40:32;0.40;;;0.40;;
49340;SDS011;35209;51.050;13.678;2023-04-15T06:45:34;0.55;;;0.40;;
49340;SDS011;35209;51.050;13.678;2023-04-15T06:50:35;1.30;;;0.70;;
49340;SDS011;35209;51.050;13.678;2023-04-15T06:55:37;1.10;;;0.65;;
49340;SDS011;35209;51.050;13.678;2023-04-15T07:00:40;0.93;;;0.80;;
49340;SDS011;35209;51.050;13.678;2023-04-15T07:05:42;2.80;;;1.90;;
49340;SDS011;35209;51.050;13.678;2023-04-15T07:10:44;1.65;;;1.15;;
49340;SDS011;35209;51.050;13.678;2023-04-15T07:15:47;0.80;;;0.80;;
49340;SDS011;35209;51.050;13.678;2023-04-15T07:20:49;0.50;;;0.50;;
49340;SDS011;35209;51.050;13.678;2023-04-15T07:25:50;0.57;;;0.52;;
49340;SDS011;35209;51.050;13.678;2023-04-15T07:30:52;1.00;;;0.50;;
49340;SDS011;35209;51.050;13.678;2023-04-15T07:35:54;0.70;;;0.60;;
49340;SDS011;35209;51.050;13.678;2023-04-15T07:40:55;0.57;;;0.52;;
49340;SDS011;35209;51.050;13.678;2023-04-15T07:45:58;1.13;;;0.60;;
49340;SDS011;35209;51.050;13.678;2023-04-15T07:51:00;0.50;;;0.47;;
49340;SDS011;35209;51.050;13.678;2023-04-15T07:56:03;0.63;;;0.55;;
49340;SDS011;35209;51.050;13.678;2023-04-15T08:01:05;0.75;;;0.43;;
49340;SDS011;35209;51.050;13.678;2023-04-15T08:06:07;0.50;;;0.50;;
49340;SDS011;35209;51.050;13.678;2023-04-15T08:11:08;0.68;;;0.68;;
49340;SDS011;35209;51.050;13.678;2023-04-15T08:16:15;0.65;;;0.38;;
49340;SDS011;35209;51.050;13.678;2023-04-15T08:21:21;1.38;;;0.40;;
49340;SDS011;35209;51.050;13.678;2023-04-15T08:26:23;0.30;;;0.30;;
49340;SDS011;35209;51.050;13.678;2023-04-15T08:31:25;0.40;;;0.40;;
49340;SDS011;35209;51.050;13.678;2023-04-15T08:36:28;0.50;;;0.50;;
49340;SDS011;35209;51.050;13.678;2023-04-15T08:41:44;0.40;;;0.40;;
49340;SDS011;35209;51.050;13.678;2023-04-15T08:46:48;0.60;;;0.40;;
49340;SDS011;35209;51.050;13.678;2023-04-15T08:51:50;0.30;;;0.30;;
49340;SDS011;35209;51.050;13.678;2023-04-15T08:56:52;0.40;;;0.30;;
49340;SDS011;35209;51.050;13.678;2023-04-15T09:01:54;0.60;;;0.20;;
49340;SDS011;35209;51.050;13.678;2023-04-15T09:06:57;0.88;;;0.50;;
49340;SDS011;35209;51.050;13.678;2023-04-15T09:12:00;0.52;;;0.52;;
49340;SDS011;35209;51.050;13.678;2023-04-15T09:17:02;1.10;;;1.00;;
49340;SDS011;35209;51.050;13.678;2023-04-15T09:22:05;0.75;;;0.60;;
49340;SDS011;35209;51.050;13.678;2023-04-15T09:27:06;0.68;;;0.68;;
49340;SDS011;35209;51.050;13.678;2023-04-15T09:32:12;0.55;;;0.52;;
49340;SDS011;35209;51.050;13.678;2023-04-15T09:37:15;2.58;;;1.40;;
49340;SDS011;35209;51.050;13.678;2023-04-15T09:42:32;1.80;;;1.70;;
49340;SDS011;35209;51.050;13.678;2023-04-15T09:47:34;1.75;;;1.63;;
49340;SDS011;35209;51.050;13.678;2023-04-15T09:52:40;1.60;;;1.50;;
49340;SDS011;35209;51.050;13.678;2023-04-15T09:57:46;3.05;;;2.25;;
49340;SDS011;35209;51.050;13.678;2023-04-15T10:02:49;1.77;;;1.67;;
49340;SDS011;35209;51.050;13.678;2023-04-15T10:07:52;2.17;;;1.98;;
49340;SDS011;35209;51.050;13.678;2023-04-15T10:12:55;1.98;;;1.88;;
49340;SDS011;35209;51.050;13.678;2023-04-15T10:18:00;2.20;;;1.75;;
49340;SDS011;35209;51.050;13.678;2023-04-15T10:23:06;3.03;;;2.60;;
49340;SDS011;35209;51.050;13.678;2023-04-15T10:33:16;3.15;;;2.95;;
49340;SDS011;35209;51.050;13.678;2023-04-15T10:38:30;3.50;;;3.20;;
49340;SDS011;35209;51.050;13.678;2023-04-15T10:43:52;2.70;;;2.50;;
49340;SDS011;35209;51.050;13.678;2023-04-15T10:48:56;3.17;;;2.65;;
49340;SDS011;35209;51.050;13.678;2023-04-15T10:53:58;3.75;;;3.45;;
49340;SDS011;35209;51.050;13.678;2023-04-15T10:59:01;2.53;;;2.33;;
49340;SDS011;35209;51.050;13.678;2023-04-15T11:04:05;4.03;;;2.50;;
49340;SDS011;35209;51.050;13.678;2023-04-15T11:09:11;2.65;;;2.45;;
49340;SDS011;35209;51.050;13.678;2023-04-15T11:14:36;2.25;;;2.05;;
49340;SDS011;35209;51.050;13.678;2023-04-15T11:19:40;2.72;;;2.53;;
49340;SDS011;35209;51.050;13.678;2023-04-15T11:24:48;2.80;;;2.60;;
49340;SDS011;35209;51.050;13.678;2023-04-15T11:29:50;2.20;;;2.10;;
49340;SDS011;35209;51.050;13.678;2023-04-15T11:34:53;2.63;;;2.42;;
49340;SDS011;35209;51.050;13.678;2023-04-15T11:39:55;2.80;;;2.60;;
49340;SDS011;35209;51.050;13.678;2023-04-15T11:45:07;2.35;;;2.15;;
49340;SDS011;35209;51.050;13.678;2023-04-15T11:50:16;2.17;;;1.97;;
49340;SDS011;35209;51.050;13.678;2023-04-15T11:55:19;2.20;;;1.80;;
49340;SDS011;35209;51.050;13.678;2023-04-15T12:00:21;2.17;;;1.98;;
49340;SDS011;35209;51.050;13.678;2023-04-15T12:05:22;1.88;;;1.50;;
49340;SDS011;35209;51.050;13.678;2023-04-15T12:10:24;1.85;;;1.65;;
49340;SDS011;35209;51.050;13.678;2023-04-15T12:15:26;1.95;;;1.75;;
49340;SDS011;35209;51.050;13.678;2023-04-15T12:20:28;2.00;;;1.85;;
49340;SDS011;35209;51.050;13.678;2023-04-15T12:25:32;2.00;;;1.70;;
49340;SDS011;35209;51.050;13.678;2023-04-15T12:30:35;1.60;;;1.50;;
49340;SDS011;35209;51.050;13.678;2023-04-15T12:35:48;2.00;;;1.80;;
49340;SDS011;35209;51.050;13.678;2023-04-15T12:40:50;1.85;;;1.75;;
49340;SDS011;35209;51.050;13.678;2023-04-15T12:45:52;1.90;;;1.77;;
49340;SDS011;35209;51.050;13.678;2023-04-15T12:50:53;2.13;;;1.70;;
49340;SDS011;35209;51.050;13.678;2023-04-15T12:55:55;1.88;;;1.75;;
49340;SDS011;35209;51.050;13.678;2023-04-15T13:00:57;1.52;;;1.42;;
49340;SDS011;35209;51.050;13.678;2023-04-15T13:05:59;2.05;;;1.70;;
49340;SDS011;35209;51.050;13.678;2023-04-15T13:11:02;3.60;;;1.77;;
49340;SDS011;35209;51.050;13.678;2023-04-15T13:16:04;1.52;;;1.42;;
49340;SDS011;35209;51.050;13.678;2023-04-15T13:21:07;1.80;;;1.45;;
49340;SDS011;35209;51.050;13.678;2023-04-15T13:26:11;2.08;;;1.63;;
49340;SDS011;35209;51.050;13.678;2023-04-15T13:31:13;1.40;;;1.30;;
49340;SDS011;35209;51.050;13.678;2023-04-15T13:36:15;1.70;;;1.48;;
49340;SDS011;35209;51.050;13.678;2023-04-15T13:41:17;1.92;;;1.83;;
49340;SDS011;35209;51.050;13.678;2023-04-15T13:46:20;1.88;;;1.58;;
49340;SDS011;35209;51.050;13.678;2023-04-15T13:51:22;2.13;;;1.92;;
49340;SDS011;35209;51.050;13.678;2023-04-15T13:56:24;2.15;;;1.75;;
49340;SDS011;35209;51.050;13.678;2023-04-15T14:01:27;2.22;;;2.00;;
49340;SDS011;35209;51.050;13.678;2023-04-15T14:06:29;3.17;;;2.88;;
49340;SDS011;35209;51.050;13.678;2023-04-15T14:11:31;8.05;;;7.35;;
49340;SDS011;35209;51.050;13.678;2023-04-15T14:16:35;6.97;;;3.45;;
49340;SDS011;35209;51.050;13.678;2023-04-15T14:21:37;2.35;;;2.15;;
49340;SDS011;35209;51.050;13.678;2023-04-15T14:26:39;1.95;;;1.85;;
49340;SDS011;35209;51.050;13.678;2023-04-15T14:31:41;11.25;;;10.27;;
49340;SDS011;35209;51.050;13.678;2023-04-15T14:37:05;3.05;;;2.75;;
49340;SDS011;35209;51.050;13.678;2023-04-15T14:42:07;2.55;;;2.33;;
49340;SDS011;35209;51.050;13.678;2023-04-15T14:47:09;3.78;;;2.63;;
49340;SDS011;35209;51.050;13.678;2023-04-15T14:52:11;2.47;;;2.28;;
49340;SDS011;35209;51.050;13.678;2023-04-15T14:57:13;2.88;;;2.30;;
49340;SDS011;35209;51.050;13.678;2023-04-15T15:02:15;2.13;;;2.03;;
49340;SDS011;35209;51.050;13.678;2023-04-15T15:07:38;3.05;;;2.50;;
49340;SDS011;35209;51.050;13.678;2023-04-15T15:12:41;2.72;;;2.53;;
49340;SDS011;35209;51.050;13.678;2023-04-15T15:17:43;2.22;;;2.08;;
49340;SDS011;35209;51.050;13.678;2023-04-15T15:22:45;2.70;;;2.50;;
49340;SDS011;35209;51.050;13.678;2023-04-15T15:27:47;2.45;;;2.03;;
49340;SDS011;35209;51.050;13.678;2023-04-15T15:32:50;2.60;;;2.40;;
49340;SDS011;35209;51.050;13.678;2023-04-15T15:37:52;3.17;;;2.55;;
49340;SDS011;35209;51.050;13.678;2023-04-15T15:42:55;2.78;;;2.58;;
49340;SDS011;35209;51.050;13.678;2023-04-15T15:47:57;4.53;;;4.13;;
49340;SDS011;35209;51.050;13.678;2023-04-15T15:53:00;2.70;;;2.50;;
49340;SDS011;35209;51.050;13.678;2023-04-15T15:58:02;2.30;;;2.05;;
49340;SDS011;35209;51.050;13.678;2023-04-15T16:03:04;2.72;;;2.28;;
49340;SDS011;35209;51.050;13.678;2023-04-15T16:08:08;2.67;;;2.47;;
49340;SDS011;35209;51.050;13.678;2023-04-15T16:13:10;3.17;;;2.90;;
49340;SDS011;35209;51.050;13.678;2023-04-15T16:18:12;2.95;;;2.53;;
49340;SDS011;35209;51.050;13.678;2023-04-15T16:23:17;2.80;;;2.60;;
49340;SDS011;35209;51.050;13.678;2023-04-15T16:28:19;2.42;;;2.22;;
49340;SDS011;35209;51.050;13.678;2023-04-15T16:33:27;3.13;;;2.83;;
49340;SDS011;35209;51.050;13.678;2023-04-15T16:38:29;3.08;;;2.88;;
49340;SDS011;35209;51.050;13.678;2023-04-15T16:43:31;2.58;;;2.38;;
49340;SDS011;35209;51.050;13.678;2023-04-15T16:48:33;3.00;;;2.78;;
49340;SDS011;35209;51.050;13.678;2023-04-15T16:53:35;2.33;;;2.13;;
49340;SDS011;35209;51.050;13.678;2023-04-15T16:58:37;3.30;;;3.10;;
49340;SDS011;35209;51.050;13.678;2023-04-15T17:03:40;3.28;;;2.97;;
49340;SDS011;35209;51.050;13.678;2023-04-15T17:08:42;3.55;;;3.13;;
49340;SDS011;35209;51.050;13.678;2023-04-15T17:13:45;4.03;;;3.72;;
49340;SDS011;35209;51.050;13.678;2023-04-15T17:18:47;4.60;;;4.20;;
49340;SDS011;35209;51.050;13.678;2023-04-15T17:23:51;5.15;;;4.65;;
49340;SDS011;35209;51.050;13.678;2023-04-15T17:28:55;4.95;;;4.47;;
49340;SDS011;35209;51.050;13.678;2023-04-15T17:33:57;5.50;;;5.10;;
49340;SDS011;35209;51.050;13.678;2023-04-15T17:39:10;10.10;;;9.32;;
49340;SDS011;35209;51.050;13.678;2023-04-15T17:44:12;8.43;;;7.63;;
49340;SDS011;35209;51.050;13.678;2023-04-15T17:49:13;10.38;;;9.52;;
49340;SDS011;35209;51.050;13.678;2023-04-15T17:54:15;11.63;;;10.82;;
49340;SDS011;35209;51.050;13.678;2023-04-15T17:59:17;8.20;;;7.70;;
49340;SDS011;35209;51.050;13.678;2023-04-15T18:04:19;7.18;;;6.55;;
49340;SDS011;35209;51.050;13.678;2023-04-15T18:09:27;6.25;;;5.75;;
49340;SDS011;35209;51.050;13.678;2023-04-15T18:14:29;7.75;;;6.90;;
49340;SDS011;35209;51.050;13.678;2023-04-15T18:19:35;7.38;;;6.88;;
49340;SDS011;35209;51.050;13.678;2023-04-15T18:24:37;12.05;;;11.15;;
49340;SDS011;35209;51.050;13.678;2023-04-15T18:29:39;7.53;;;6.82;;
49340;SDS011;35209;51.050;13.678;2023-04-15T18:34:41;8.13;;;6.10;;
49340;SDS011;35209;51.050;13.678;2023-04-15T18:39:43;7.40;;;5.45;;
49340;SDS011;35209;51.050;13.678;2023-04-15T18:44:45;6.35;;;5.85;;
49340;SDS011;35209;51.050;13.678;2023-04-15T18:49:46;6.80;;;6.20;;
49340;SDS011;35209;51.050;13.678;2023-04-15T18:54:48;7.50;;;6.80;;
49340;SDS011;35209;51.050;13.678;2023-04-15T18:59:50;9.57;;;8.88;;
49340;SDS011;35209;51.050;13.678;2023-04-15T19:04:52;8.18;;;6.75;;
49340;SDS011;35209;51.050;13.678;2023-04-15T19:09:54;8.73;;;8.07;;
49340;SDS011;35209;51.050;13.678;2023-04-15T19:15:03;12.48;;;11.57;;
49340;SDS011;35209;51.050;13.678;2023-04-15T19:20:05;13.75;;;12.75;;
49340;SDS011;35209;51.050;13.678;2023-04-15T19:25:07;8.55;;;7.95;;
49340;SDS011;35209;51.050;13.678;2023-04-15T19:30:09;8.48;;;7.88;;
49340;SDS011;35209;51.050;13.678;2023-04-15T19:35:11;8.90;;;8.30;;
49340;SDS011;35209;51.050;13.678;2023-04-15T19:40:13;7.70;;;7.20;;
49340;SDS011;35209;51.050;13.678;2023-04-15T19:45:15;9.02;;;8.43;;
49340;SDS011;35209;51.050;13.678;2023-04-15T19:50:16;9.30;;;8.68;;
49340;SDS011;35209;51.050;13.678;2023-04-15T19:55:19;11.07;;;10.20;;
49340;SDS011;35209;51.050;13.678;2023-04-15T20:00:21;11.60;;;10.90;;
49340;SDS011;35209;51.050;13.678;2023-04-15T20:05:23;11.20;;;10.40;;
49340;SDS011;35209;51.050;13.678;2023-04-15T20:10:25;11.60;;;10.80;;
49340;SDS011;35209;51.050;13.678;2023-04-15T20:15:27;12.23;;;11.45;;
49340;SDS011;35209;51.050;13.678;2023-04-15T20:20:29;12.80;;;11.90;;
49340;SDS011;35209;51.050;13.678;2023-04-15T20:25:31;13.23;;;12.30;;
49340;SDS011;35209;51.050;13.678;2023-04-15T20:30:33;12.48;;;11.68;;
49340;SDS011;35209;51.050;13.678;2023-04-15T20:35:56;13.02;;;12.23;;
49340;SDS011;35209;51.050;13.678;2023-04-15T20:40:58;15.93;;;14.82;;
49340;SDS011;35209;51.050;13.678;2023-04-15T20:46:00;15.10;;;13.90;;
49340;SDS011;35209;51.050;13.678;2023-04-15T20:51:18;15.77;;;14.48;;
49340;SDS011;35209;51.050;13.678;2023-04-15T20:56:20;18.50;;;17.08;;
49340;SDS011;35209;51.050;13.678;2023-04-15T21:01:24;18.08;;;16.77;;
49340;SDS011;35209;51.050;13.678;2023-04-15T21:06:26;16.52;;;15.23;;
49340;SDS011;35209;51.050;13.678;2023-04-15T21:11:28;18.08;;;16.77;;
49340;SDS011;35209;51.050;13.678;2023-04-15T21:16:37;19.23;;;17.92;;
49340;SDS011;35209;51.050;13.678;2023-04-15T21:21:39;19.63;;;18.33;;
49340;SDS011;35209;51.050;13.678;2023-04-15T21:26:40;18.80;;;17.50;;
49340;SDS011;35209;51.050;13.678;2023-04-15T21:31:42;19.95;;;18.55;;
49340;SDS011;35209;51.050;13.678;2023-04-15T21:36:58;19.10;;;17.70;;
49340;SDS011;35209;51.050;13.678;2023-04-15T21:42:01;24.45;;;22.65;;
49340;SDS011;35209;51.050;13.678;2023-04-15T21:47:03;35.08;;;31.65;;
49340;SDS011;35209;51.050;13.678;2023-04-15T21:52:05;40.55;;;36.10;;
49340;SDS011;35209;51.050;13.678;2023-04-15T21:57:07;52.80;;;40.97;;
49340;SDS011;35209;51.050;13.678;2023-04-15T22:02:08;42.38;;;35.83;;
49340;SDS011;35209;51.050;13.678;2023-04-15T22:07:10;34.53;;;30.90;;
49340;SDS011;35209;51.050;13.678;2023-04-15T22:12:12;40.60;;;32.47;;
49340;SDS011;35209;51.050;13.678;2023-04-15T22:17:14;33.78;;;29.48;;
49340;SDS011;35209;51.050;13.678;2023-04-15T22:22:16;36.35;;;31.17;;
49340;SDS011;35209;51.050;13.678;2023-04-15T22:27:20;23.77;;;21.95;;
49340;SDS011;35209;51.050;13.678;2023-04-15T22:32:21;24.55;;;22.52;;
49340;SDS011;35209;51.050;13.678;2023-04-15T22:37:23;25.02;;;23.05;;
49340;SDS011;35209;51.050;13.678;2023-04-15T22:42:25;25.90;;;23.75;;
49340;SDS011;35209;51.050;13.678;2023-04-15T22:47:26;26.80;;;24.48;;
49340;SDS011;35209;51.050;13.678;2023-04-15T22:52:28;26.20;;;24.02;;
49340;SDS011;35209;51.050;13.678;2023-04-15T22:57:31;26.90;;;24.45;;
49340;SDS011;35209;51.050;13.678;2023-04-15T23:02:33;26.80;;;24.58;;
49340;SDS011;35209;51.050;13.678;2023-04-15T23:07:35;24.23;;;22.35;;
49340;SDS011;35209;51.050;13.678;2023-04-15T23:12:37;25.95;;;23.80;;
49340;SDS011;35209;51.050;13.678;2023-04-15T23:17:40;31.20;;;28.42;;
49340;SDS011;35209;51.050;13.678;2023-04-15T23:22:42;30.15;;;27.42;;
49340;SDS011;35209;51.050;13.678;2023-04-15T23:27:44;32.90;;;29.83;;
49340;SDS011;35209;51.050;13.678;2023-04-15T23:32:46;33.25;;;30.27;;
49340;SDS011;35209;51.050;13.678;2023-04-15T23:37:47;30.70;;;28.17;;
49340;SDS011;35209;51.050;13.678;2023-04-15T23:42:49;28.10;;;25.95;;
49340;SDS011;35209;51.050;13.678;2023-04-15T23:47:52;26.63;;;24.73;;
49340;SDS011;35209;51.050;13.678;2023-04-15T23:52:53;28.05;;;25.80;;
49340;SDS011;35209;51.050;13.678;2023-04-15T23:57:55;23.90;;;22.23;;
